sensor_id;sensor_type;location;lat;lon;timestamp;P1;durP1;ratioP1;P2;durP2;ratioP2
5085;SDS011;4715;51.660;7.082;2023-06-26T00:01:30;3.53;;;3.33;;
5085;SDS011;4715;51.660;7.082;2023-06-26T00:03:52;2.90;;;2.80;;
5085;SDS011;4715;51.660;7.082;2023-06-26T00:06:13;3.27;;;3.07;;
5085;SDS011;4715;51.660;7.082;2023-06-26T00:08:37;2.97;;;2.87;;
5085;SDS011;4715;51.660;7.082;2023-06-26T00:10:58;3.53;;;3.27;;
5085;SDS011;4715;51.660;7.082;2023-06-26T00:13:21;3.73;;;3.53;;
5085;SDS011;4715;51.660;7.082;2023-06-26T00:15:43;3.03;;;2.90;;
5085;SDS011;4715;51.660;7.082;2023-06-26T00:18:05;3.10;;;2.90;;
5085;SDS011;4715;51.660;7.082;2023-06-26T00:20:27;3.30;;;3.10;;
5085;SDS011;4715;51.660;7.082;2023-06-26T00:22:49;3.00;;;2.80;;
5085;SDS011;4715;51.660;7.082;2023-06-26T00:25:12;3.37;;;3.17;;
5085;SDS011;4715;51.660;7.082;2023-06-26T00:27:34;3.70;;;3.43;;
5085;SDS011;4715;51.660;7.082;2023-06-26T00:29:55;3.40;;;3.20;;
5085;SDS011;4715;51.660;7.082;2023-06-26T00:32:17;3.57;;;3.37;;
5085;SDS011;4715;51.660;7.082;2023-06-26T00:34:39;3.60;;;3.40;;
5085;SDS011;4715;51.660;7.082;2023-06-26T00:37:01;4.00;;;3.80;;
5085;SDS011;4715;51.660;7.082;2023-06-26T00:39:23;3.33;;;3.13;;
5085;SDS011;4715;51.660;7.082;2023-06-26T00:41:47;4.50;;;4.10;;
5085;SDS011;4715;51.660;7.082;2023-06-26T00:44:08;3.60;;;3.40;;
5085;SDS011;4715;51.660;7.082;2023-06-26T00:46:30;4.00;;;3.70;;
5085;SDS011;4715;51.660;7.082;2023-06-26T00:48:53;3.90;;;3.70;;
5085;SDS011;4715;51.660;7.082;2023-06-26T00:51:16;3.07;;;2.87;;
5085;SDS011;4715;51.660;7.082;2023-06-26T00:53:38;3.73;;;3.53;;
5085;SDS011;4715;51.660;7.082;2023-06-26T00:56:00;3.77;;;3.57;;
5085;SDS011;4715;51.660;7.082;2023-06-26T00:58:24;3.80;;;3.60;;
5085;SDS011;4715;51.660;7.082;2023-06-26T01:00:47;3.60;;;3.40;;
5085;SDS011;4715;51.660;7.082;2023-06-26T01:03:09;3.80;;;3.60;;
5085;SDS011;4715;51.660;7.082;2023-06-26T01:05:31;4.23;;;3.93;;
5085;SDS011;4715;51.660;7.082;2023-06-26T01:07:53;4.03;;;3.83;;
5085;SDS011;4715;51.660;7.082;2023-06-26T01:10:15;3.70;;;3.40;;
5085;SDS011;4715;51.660;7.082;2023-06-26T01:12:37;3.90;;;3.70;;
5085;SDS011;4715;51.660;7.082;2023-06-26T01:15:02;4.40;;;3.93;;
5085;SDS011;4715;51.660;7.082;2023-06-26T01:17:24;3.80;;;3.60;;
5085;SDS011;4715;51.660;7.082;2023-06-26T01:19:51;4.70;;;4.40;;
5085;SDS011;4715;51.660;7.082;2023-06-26T01:22:16;4.13;;;3.90;;
5085;SDS011;4715;51.660;7.082;2023-06-26T01:24:42;4.13;;;3.83;;
5085;SDS011;4715;51.660;7.082;2023-06-26T01:27:16;4.33;;;4.13;;
5085;SDS011;4715;51.660;7.082;2023-06-26T01:29:40;4.80;;;4.40;;
5085;SDS011;4715;51.660;7.082;2023-06-26T01:32:04;4.30;;;4.00;;
5085;SDS011;4715;51.660;7.082;2023-06-26T01:34:26;4.30;;;4.00;;
5085;SDS011;4715;51.660;7.082;2023-06-26T01:36:48;4.30;;;4.00;;
5085;SDS011;4715;51.660;7.082;2023-06-26T01:39:10;4.40;;;4.10;;
5085;SDS011;4715;51.660;7.082;2023-06-26T01:41:33;4.30;;;4.00;;
5085;SDS011;4715;51.660;7.082;2023-06-26T01:44:03;5.07;;;4.67;;
5085;SDS011;4715;51.660;7.082;2023-06-26T01:46:42;4.90;;;4.60;;
5085;SDS011;4715;51.660;7.082;2023-06-26T01:49:15;4.57;;;4.27;;
5085;SDS011;4715;51.660;7.082;2023-06-26T01:51:45;4.80;;;4.50;;
5085;SDS011;4715;51.660;7.082;2023-06-26T01:54:17;4.83;;;4.53;;
5085;SDS011;4715;51.660;7.082;2023-06-26T01:56:41;4.40;;;4.10;;
5085;SDS011;4715;51.660;7.082;2023-06-26T01:59:05;3.60;;;3.40;;
5085;SDS011;4715;51.660;7.082;2023-06-26T02:01:31;4.40;;;4.10;;
5085;SDS011;4715;51.660;7.082;2023-06-26T02:03:53;4.20;;;3.90;;
5085;SDS011;4715;51.660;7.082;2023-06-26T02:06:15;4.30;;;4.00;;
5085;SDS011;4715;51.660;7.082;2023-06-26T02:08:37;4.10;;;3.80;;
5085;SDS011;4715;51.660;7.082;2023-06-26T02:10:58;4.97;;;4.57;;
5085;SDS011;4715;51.660;7.082;2023-06-26T02:13:20;4.37;;;4.07;;
5085;SDS011;4715;51.660;7.082;2023-06-26T02:15:42;4.00;;;3.70;;
5085;SDS011;4715;51.660;7.082;2023-06-26T02:18:06;4.67;;;4.37;;
5085;SDS011;4715;51.660;7.082;2023-06-26T02:20:27;4.20;;;3.90;;
5085;SDS011;4715;51.660;7.082;2023-06-26T02:22:49;4.43;;;3.63;;
5085;SDS011;4715;51.660;7.082;2023-06-26T02:25:11;4.33;;;4.03;;
5085;SDS011;4715;51.660;7.082;2023-06-26T02:27:33;4.23;;;4.00;;
5085;SDS011;4715;51.660;7.082;2023-06-26T02:29:55;5.27;;;4.87;;
5085;SDS011;4715;51.660;7.082;2023-06-26T02:32:16;4.00;;;3.80;;
5085;SDS011;4715;51.660;7.082;2023-06-26T02:34:40;4.20;;;3.90;;
5085;SDS011;4715;51.660;7.082;2023-06-26T02:37:01;4.60;;;4.30;;
5085;SDS011;4715;51.660;7.082;2023-06-26T02:39:23;5.87;;;5.10;;
5085;SDS011;4715;51.660;7.082;2023-06-26T02:41:45;5.17;;;4.77;;
5085;SDS011;4715;51.660;7.082;2023-06-26T02:44:07;5.00;;;4.53;;
5085;SDS011;4715;51.660;7.082;2023-06-26T02:46:29;5.30;;;4.90;;
5085;SDS011;4715;51.660;7.082;2023-06-26T02:48:50;6.17;;;5.67;;
5085;SDS011;4715;51.660;7.082;2023-06-26T02:51:14;5.20;;;4.90;;
5085;SDS011;4715;51.660;7.082;2023-06-26T02:53:35;6.07;;;5.60;;
5085;SDS011;4715;51.660;7.082;2023-06-26T02:55:57;5.30;;;4.90;;
5085;SDS011;4715;51.660;7.082;2023-06-26T02:58:19;5.83;;;5.30;;
5085;SDS011;4715;51.660;7.082;2023-06-26T03:00:41;4.60;;;4.30;;
5085;SDS011;4715;51.660;7.082;2023-06-26T03:03:03;5.63;;;5.10;;
5085;SDS011;4715;51.660;7.082;2023-06-26T03:05:25;5.77;;;5.27;;
5085;SDS011;4715;51.660;7.082;2023-06-26T03:07:48;6.77;;;5.37;;
5085;SDS011;4715;51.660;7.082;2023-06-26T03:10:10;6.50;;;5.90;;
5085;SDS011;4715;51.660;7.082;2023-06-26T03:12:31;5.80;;;5.40;;
5085;SDS011;4715;51.660;7.082;2023-06-26T03:14:53;5.93;;;5.43;;
5085;SDS011;4715;51.660;7.082;2023-06-26T03:17:15;5.37;;;4.97;;
5085;SDS011;4715;51.660;7.082;2023-06-26T03:19:37;5.67;;;5.27;;
5085;SDS011;4715;51.660;7.082;2023-06-26T03:21:58;6.20;;;5.70;;
5085;SDS011;4715;51.660;7.082;2023-06-26T03:24:22;5.70;;;5.30;;
5085;SDS011;4715;51.660;7.082;2023-06-26T03:26:43;5.90;;;5.40;;
5085;SDS011;4715;51.660;7.082;2023-06-26T03:29:05;5.70;;;5.30;;
5085;SDS011;4715;51.660;7.082;2023-06-26T03:31:30;5.43;;;4.97;;
5085;SDS011;4715;51.660;7.082;2023-06-26T03:33:54;5.73;;;5.23;;
5085;SDS011;4715;51.660;7.082;2023-06-26T03:36:17;6.27;;;5.70;;
5085;SDS011;4715;51.660;7.082;2023-06-26T03:38:40;7.00;;;6.40;;
5085;SDS011;4715;51.660;7.082;2023-06-26T03:41:04;6.07;;;5.57;;
5085;SDS011;4715;51.660;7.082;2023-06-26T03:43:28;9.10;;;6.47;;
5085;SDS011;4715;51.660;7.082;2023-06-26T03:45:51;6.80;;;5.97;;
5085;SDS011;4715;51.660;7.082;2023-06-26T03:48:13;7.03;;;5.93;;
5085;SDS011;4715;51.660;7.082;2023-06-26T03:50:35;6.00;;;5.50;;
5085;SDS011;4715;51.660;7.082;2023-06-26T03:52:58;6.17;;;5.60;;
5085;SDS011;4715;51.660;7.082;2023-06-26T03:55:22;6.70;;;6.10;;
5085;SDS011;4715;51.660;7.082;2023-06-26T03:57:46;6.20;;;5.63;;
5085;SDS011;4715;51.660;7.082;2023-06-26T04:00:09;6.07;;;5.47;;
5085;SDS011;4715;51.660;7.082;2023-06-26T04:02:34;6.47;;;5.87;;
5085;SDS011;4715;51.660;7.082;2023-06-26T04:04:56;6.30;;;5.70;;
5085;SDS011;4715;51.660;7.082;2023-06-26T04:07:22;6.53;;;5.93;;
5085;SDS011;4715;51.660;7.082;2023-06-26T04:09:45;6.80;;;5.97;;
5085;SDS011;4715;51.660;7.082;2023-06-26T04:12:06;6.60;;;5.97;;
5085;SDS011;4715;51.660;7.082;2023-06-26T04:14:30;7.10;;;6.50;;
5085;SDS011;4715;51.660;7.082;2023-06-26T04:16:53;7.03;;;6.37;;
5085;SDS011;4715;51.660;7.082;2023-06-26T04:19:15;6.83;;;6.13;;
5085;SDS011;4715;51.660;7.082;2023-06-26T04:21:37;9.80;;;6.67;;
5085;SDS011;4715;51.660;7.082;2023-06-26T04:24:00;6.87;;;6.37;;
5085;SDS011;4715;51.660;7.082;2023-06-26T04:26:23;7.73;;;7.03;;
5085;SDS011;4715;51.660;7.082;2023-06-26T04:28:47;9.53;;;6.67;;
5085;SDS011;4715;51.660;7.082;2023-06-26T04:31:12;7.30;;;6.60;;
5085;SDS011;4715;51.660;7.082;2023-06-26T04:33:36;8.10;;;7.00;;
5085;SDS011;4715;51.660;7.082;2023-06-26T04:36:00;7.53;;;6.83;;
5085;SDS011;4715;51.660;7.082;2023-06-26T04:38:33;7.83;;;7.10;;
5085;SDS011;4715;51.660;7.082;2023-06-26T04:40:55;7.70;;;6.80;;
5085;SDS011;4715;51.660;7.082;2023-06-26T04:43:18;9.70;;;7.50;;
5085;SDS011;4715;51.660;7.082;2023-06-26T04:45:40;11.13;;;7.07;;
5085;SDS011;4715;51.660;7.082;2023-06-26T04:48:03;7.70;;;7.10;;
5085;SDS011;4715;51.660;7.082;2023-06-26T04:50:25;8.50;;;7.70;;
5085;SDS011;4715;51.660;7.082;2023-06-26T04:52:48;8.63;;;7.60;;
5085;SDS011;4715;51.660;7.082;2023-06-26T04:55:10;8.50;;;7.00;;
5085;SDS011;4715;51.660;7.082;2023-06-26T04:57:34;7.37;;;6.70;;
5085;SDS011;4715;51.660;7.082;2023-06-26T04:59:56;7.63;;;6.93;;
5085;SDS011;4715;51.660;7.082;2023-06-26T05:02:18;7.10;;;6.60;;
5085;SDS011;4715;51.660;7.082;2023-06-26T05:04:41;10.10;;;7.07;;
5085;SDS011;4715;51.660;7.082;2023-06-26T05:07:03;6.77;;;6.17;;
5085;SDS011;4715;51.660;7.082;2023-06-26T05:09:25;7.03;;;6.33;;
5085;SDS011;4715;51.660;7.082;2023-06-26T05:11:47;7.63;;;6.83;;
5085;SDS011;4715;51.660;7.082;2023-06-26T05:14:09;7.87;;;7.17;;
5085;SDS011;4715;51.660;7.082;2023-06-26T05:16:31;7.07;;;6.40;;
5085;SDS011;4715;51.660;7.082;2023-06-26T05:18:52;7.33;;;6.60;;
5085;SDS011;4715;51.660;7.082;2023-06-26T05:21:16;7.63;;;7.00;;
5085;SDS011;4715;51.660;7.082;2023-06-26T05:23:38;9.20;;;5.90;;
5085;SDS011;4715;51.660;7.082;2023-06-26T05:26:01;7.33;;;5.37;;
5085;SDS011;4715;51.660;7.082;2023-06-26T05:28:24;6.77;;;6.10;;
5085;SDS011;4715;51.660;7.082;2023-06-26T05:30:47;7.37;;;6.40;;
5085;SDS011;4715;51.660;7.082;2023-06-26T05:33:10;7.20;;;6.47;;
5085;SDS011;4715;51.660;7.082;2023-06-26T05:35:33;9.70;;;6.90;;
5085;SDS011;4715;51.660;7.082;2023-06-26T05:37:58;7.63;;;5.90;;
5085;SDS011;4715;51.660;7.082;2023-06-26T05:40:21;6.90;;;6.13;;
5085;SDS011;4715;51.660;7.082;2023-06-26T05:42:43;5.63;;;5.13;;
5085;SDS011;4715;51.660;7.082;2023-06-26T05:45:06;6.70;;;6.17;;
5085;SDS011;4715;51.660;7.082;2023-06-26T05:47:29;6.70;;;6.00;;
5085;SDS011;4715;51.660;7.082;2023-06-26T05:49:51;6.70;;;5.53;;
5085;SDS011;4715;51.660;7.082;2023-06-26T05:52:13;5.43;;;4.90;;
5085;SDS011;4715;51.660;7.082;2023-06-26T05:54:37;6.77;;;5.73;;
5085;SDS011;4715;51.660;7.082;2023-06-26T05:57:00;7.60;;;6.10;;
5085;SDS011;4715;51.660;7.082;2023-06-26T05:59:23;5.60;;;5.20;;
5085;SDS011;4715;51.660;7.082;2023-06-26T06:01:46;7.40;;;4.83;;
5085;SDS011;4715;51.660;7.082;2023-06-26T06:04:08;5.03;;;4.63;;
5085;SDS011;4715;51.660;7.082;2023-06-26T06:06:30;5.80;;;5.17;;
5085;SDS011;4715;51.660;7.082;2023-06-26T06:08:52;5.70;;;5.17;;
5085;SDS011;4715;51.660;7.082;2023-06-26T06:11:15;4.97;;;4.67;;
5085;SDS011;4715;51.660;7.082;2023-06-26T06:13:37;11.37;;;5.00;;
5085;SDS011;4715;51.660;7.082;2023-06-26T06:15:59;4.90;;;4.50;;
5085;SDS011;4715;51.660;7.082;2023-06-26T06:18:22;5.47;;;4.57;;
5085;SDS011;4715;51.660;7.082;2023-06-26T06:20:45;5.70;;;5.17;;
5085;SDS011;4715;51.660;7.082;2023-06-26T06:23:07;5.17;;;4.70;;
5085;SDS011;4715;51.660;7.082;2023-06-26T06:25:29;7.60;;;5.40;;
5085;SDS011;4715;51.660;7.082;2023-06-26T06:27:54;7.23;;;4.57;;
5085;SDS011;4715;51.660;7.082;2023-06-26T06:30:17;5.30;;;4.80;;
5085;SDS011;4715;51.660;7.082;2023-06-26T06:32:39;5.40;;;4.87;;
5085;SDS011;4715;51.660;7.082;2023-06-26T06:35:01;5.37;;;4.77;;
5085;SDS011;4715;51.660;7.082;2023-06-26T06:37:29;5.17;;;4.50;;
5085;SDS011;4715;51.660;7.082;2023-06-26T06:39:52;8.17;;;4.60;;
5085;SDS011;4715;51.660;7.082;2023-06-26T06:42:14;6.47;;;5.83;;
5085;SDS011;4715;51.660;7.082;2023-06-26T06:44:38;10.40;;;5.73;;
5085;SDS011;4715;51.660;7.082;2023-06-26T06:47:00;12.40;;;5.73;;
5085;SDS011;4715;51.660;7.082;2023-06-26T06:49:22;7.47;;;5.07;;
5085;SDS011;4715;51.660;7.082;2023-06-26T06:51:44;7.57;;;4.93;;
5085;SDS011;4715;51.660;7.082;2023-06-26T06:54:06;8.83;;;5.10;;
5085;SDS011;4715;51.660;7.082;2023-06-26T06:59:00;9.17;;;5.90;;
5085;SDS011;4715;51.660;7.082;2023-06-26T07:01:25;8.47;;;4.50;;
5085;SDS011;4715;51.660;7.082;2023-06-26T07:03:47;8.70;;;5.97;;
5085;SDS011;4715;51.660;7.082;2023-06-26T07:06:09;7.73;;;4.63;;
5085;SDS011;4715;51.660;7.082;2023-06-26T07:08:31;6.80;;;4.80;;
5085;SDS011;4715;51.660;7.082;2023-06-26T07:10:53;7.80;;;5.00;;
5085;SDS011;4715;51.660;7.082;2023-06-26T07:13:16;6.57;;;5.63;;
5085;SDS011;4715;51.660;7.082;2023-06-26T07:15:38;9.93;;;6.47;;
5085;SDS011;4715;51.660;7.082;2023-06-26T07:18:01;5.13;;;4.60;;
5085;SDS011;4715;51.660;7.082;2023-06-26T07:20:25;10.40;;;5.90;;
5085;SDS011;4715;51.660;7.082;2023-06-26T07:22:48;10.00;;;5.87;;
5085;SDS011;4715;51.660;7.082;2023-06-26T07:25:12;7.43;;;5.17;;
5085;SDS011;4715;51.660;7.082;2023-06-26T07:27:35;11.30;;;5.63;;
5085;SDS011;4715;51.660;7.082;2023-06-26T07:29:58;6.90;;;5.93;;
5085;SDS011;4715;51.660;7.082;2023-06-26T07:32:21;7.30;;;4.83;;
5085;SDS011;4715;51.660;7.082;2023-06-26T07:34:50;9.20;;;5.20;;
5085;SDS011;4715;51.660;7.082;2023-06-26T07:37:11;5.27;;;4.70;;
5085;SDS011;4715;51.660;7.082;2023-06-26T07:39:34;8.00;;;5.13;;
5085;SDS011;4715;51.660;7.082;2023-06-26T07:41:56;6.90;;;4.97;;
5085;SDS011;4715;51.660;7.082;2023-06-26T07:47:04;4.03;;;3.73;;
5085;SDS011;4715;51.660;7.082;2023-06-26T07:49:26;6.30;;;4.63;;
5085;SDS011;4715;51.660;7.082;2023-06-26T07:51:49;8.50;;;5.10;;
5085;SDS011;4715;51.660;7.082;2023-06-26T07:54:11;7.83;;;4.43;;
5085;SDS011;4715;51.660;7.082;2023-06-26T07:56:34;8.50;;;5.33;;
5085;SDS011;4715;51.660;7.082;2023-06-26T07:59:12;5.10;;;4.60;;
5085;SDS011;4715;51.660;7.082;2023-06-26T08:01:35;8.70;;;4.80;;
5085;SDS011;4715;51.660;7.082;2023-06-26T08:03:57;7.47;;;4.60;;
5085;SDS011;4715;51.660;7.082;2023-06-26T08:06:18;6.13;;;4.27;;
5085;SDS011;4715;51.660;7.082;2023-06-26T08:08:44;8.43;;;4.80;;
5085;SDS011;4715;51.660;7.082;2023-06-26T08:11:06;7.60;;;4.40;;
5085;SDS011;4715;51.660;7.082;2023-06-26T08:13:29;7.20;;;5.03;;
5085;SDS011;4715;51.660;7.082;2023-06-26T08:15:51;12.93;;;5.20;;
5085;SDS011;4715;51.660;7.082;2023-06-26T08:18:13;5.60;;;4.97;;
5085;SDS011;4715;51.660;7.082;2023-06-26T08:20:35;6.80;;;5.93;;
5085;SDS011;4715;51.660;7.082;2023-06-26T08:22:57;7.80;;;5.03;;
5085;SDS011;4715;51.660;7.082;2023-06-26T08:25:22;7.57;;;4.60;;
5085;SDS011;4715;51.660;7.082;2023-06-26T08:27:44;6.67;;;4.83;;
5085;SDS011;4715;51.660;7.082;2023-06-26T08:30:06;4.87;;;4.37;;
5085;SDS011;4715;51.660;7.082;2023-06-26T08:32:29;6.70;;;4.60;;
5085;SDS011;4715;51.660;7.082;2023-06-26T08:34:50;7.93;;;4.47;;
5085;SDS011;4715;51.660;7.082;2023-06-26T08:37:13;6.27;;;4.20;;
5085;SDS011;4715;51.660;7.082;2023-06-26T08:39:35;4.80;;;4.37;;
5085;SDS011;4715;51.660;7.082;2023-06-26T08:41:58;7.13;;;4.03;;
5085;SDS011;4715;51.660;7.082;2023-06-26T08:44:20;9.33;;;6.20;;
5085;SDS011;4715;51.660;7.082;2023-06-26T08:46:44;6.77;;;3.63;;
5085;SDS011;4715;51.660;7.082;2023-06-26T08:49:08;4.10;;;3.80;;
5085;SDS011;4715;51.660;7.082;2023-06-26T08:51:39;4.73;;;3.53;;
5085;SDS011;4715;51.660;7.082;2023-06-26T08:54:11;8.50;;;4.30;;
5085;SDS011;4715;51.660;7.082;2023-06-26T08:56:37;4.90;;;3.80;;
5085;SDS011;4715;51.660;7.082;2023-06-26T08:59:05;5.90;;;3.30;;
5085;SDS011;4715;51.660;7.082;2023-06-26T09:01:30;6.30;;;3.50;;
5085;SDS011;4715;51.660;7.082;2023-06-26T09:03:53;3.70;;;3.07;;
5085;SDS011;4715;51.660;7.082;2023-06-26T09:06:27;4.00;;;3.70;;
5085;SDS011;4715;51.660;7.082;2023-06-26T09:08:49;4.00;;;2.80;;
5085;SDS011;4715;51.660;7.082;2023-06-26T09:11:11;3.30;;;3.10;;
5085;SDS011;4715;51.660;7.082;2023-06-26T09:13:33;7.97;;;3.90;;
5085;SDS011;4715;51.660;7.082;2023-06-26T09:15:57;4.80;;;3.83;;
5085;SDS011;4715;51.660;7.082;2023-06-26T09:18:20;4.70;;;3.40;;
5085;SDS011;4715;51.660;7.082;2023-06-26T09:20:45;4.20;;;3.77;;
5085;SDS011;4715;51.660;7.082;2023-06-26T09:23:07;5.50;;;4.10;;
5085;SDS011;4715;51.660;7.082;2023-06-26T09:25:30;7.43;;;4.97;;
5085;SDS011;4715;51.660;7.082;2023-06-26T09:27:52;5.43;;;4.20;;
5085;SDS011;4715;51.660;7.082;2023-06-26T09:30:16;6.40;;;5.80;;
5085;SDS011;4715;51.660;7.082;2023-06-26T09:32:40;3.77;;;3.20;;
5085;SDS011;4715;51.660;7.082;2023-06-26T09:35:05;4.30;;;3.47;;
5085;SDS011;4715;51.660;7.082;2023-06-26T09:37:27;8.23;;;4.40;;
5085;SDS011;4715;51.660;7.082;2023-06-26T09:39:54;6.67;;;3.57;;
5085;SDS011;4715;51.660;7.082;2023-06-26T09:42:16;4.30;;;3.13;;
5085;SDS011;4715;51.660;7.082;2023-06-26T09:44:43;3.37;;;3.13;;
5085;SDS011;4715;51.660;7.082;2023-06-26T09:47:06;3.70;;;3.40;;
5085;SDS011;4715;51.660;7.082;2023-06-26T09:49:31;5.27;;;3.13;;
5085;SDS011;4715;51.660;7.082;2023-06-26T09:51:53;3.40;;;3.13;;
5085;SDS011;4715;51.660;7.082;2023-06-26T09:54:15;3.07;;;2.67;;
5085;SDS011;4715;51.660;7.082;2023-06-26T09:56:40;2.50;;;2.30;;
5085;SDS011;4715;51.660;7.082;2023-06-26T09:59:06;3.07;;;2.80;;
5085;SDS011;4715;51.660;7.082;2023-06-26T10:01:31;3.03;;;2.63;;
5085;SDS011;4715;51.660;7.082;2023-06-26T10:03:54;5.73;;;3.50;;
5085;SDS011;4715;51.660;7.082;2023-06-26T10:06:19;5.13;;;3.07;;
5085;SDS011;4715;51.660;7.082;2023-06-26T10:08:46;3.30;;;2.60;;
5085;SDS011;4715;51.660;7.082;2023-06-26T10:11:11;4.07;;;3.20;;
5085;SDS011;4715;51.660;7.082;2023-06-26T10:13:39;2.80;;;2.33;;
5085;SDS011;4715;51.660;7.082;2023-06-26T10:16:06;2.83;;;2.63;;
5085;SDS011;4715;51.660;7.082;2023-06-26T10:18:29;2.77;;;2.57;;
5085;SDS011;4715;51.660;7.082;2023-06-26T10:20:56;3.87;;;2.67;;
5085;SDS011;4715;51.660;7.082;2023-06-26T10:23:22;3.20;;;2.60;;
5085;SDS011;4715;51.660;7.082;2023-06-26T10:25:47;5.03;;;3.47;;
5085;SDS011;4715;51.660;7.082;2023-06-26T10:28:12;3.03;;;2.40;;
5085;SDS011;4715;51.660;7.082;2023-06-26T10:30:37;3.07;;;2.77;;
5085;SDS011;4715;51.660;7.082;2023-06-26T10:33:01;3.30;;;3.00;;
5085;SDS011;4715;51.660;7.082;2023-06-26T10:35:41;4.00;;;2.63;;
5085;SDS011;4715;51.660;7.082;2023-06-26T10:38:06;3.20;;;2.33;;
5085;SDS011;4715;51.660;7.082;2023-06-26T10:40:39;2.60;;;2.30;;
5085;SDS011;4715;51.660;7.082;2023-06-26T10:43:05;5.77;;;2.73;;
5085;SDS011;4715;51.660;7.082;2023-06-26T10:45:28;5.40;;;2.83;;
5085;SDS011;4715;51.660;7.082;2023-06-26T10:47:52;3.23;;;2.73;;
5085;SDS011;4715;51.660;7.082;2023-06-26T10:50:17;3.17;;;2.97;;
5085;SDS011;4715;51.660;7.082;2023-06-26T10:52:40;3.53;;;3.23;;
5085;SDS011;4715;51.660;7.082;2023-06-26T10:55:03;2.73;;;2.37;;
5085;SDS011;4715;51.660;7.082;2023-06-26T10:57:28;2.90;;;2.70;;
5085;SDS011;4715;51.660;7.082;2023-06-26T11:02:42;4.00;;;2.90;;
5085;SDS011;4715;51.660;7.082;2023-06-26T11:05:09;3.27;;;3.07;;
5085;SDS011;4715;51.660;7.082;2023-06-26T11:07:31;3.07;;;2.83;;
5085;SDS011;4715;51.660;7.082;2023-06-26T11:09:56;3.93;;;2.40;;
5085;SDS011;4715;51.660;7.082;2023-06-26T11:15:11;3.30;;;3.00;;
5085;SDS011;4715;51.660;7.082;2023-06-26T11:17:37;4.30;;;2.20;;
5085;SDS011;4715;51.660;7.082;2023-06-26T11:20:00;4.17;;;2.53;;
5085;SDS011;4715;51.660;7.082;2023-06-26T11:22:24;2.90;;;2.70;;
5085;SDS011;4715;51.660;7.082;2023-06-26T11:24:48;3.07;;;2.70;;
5085;SDS011;4715;51.660;7.082;2023-06-26T11:27:11;2.90;;;2.80;;
5085;SDS011;4715;51.660;7.082;2023-06-26T11:29:34;2.80;;;2.60;;
5085;SDS011;4715;51.660;7.082;2023-06-26T11:32:10;2.57;;;2.40;;
5085;SDS011;4715;51.660;7.082;2023-06-26T11:34:34;2.60;;;2.40;;
5085;SDS011;4715;51.660;7.082;2023-06-26T11:36:58;4.80;;;1.90;;
5085;SDS011;4715;51.660;7.082;2023-06-26T11:39:22;2.70;;;2.07;;
5085;SDS011;4715;51.660;7.082;2023-06-26T11:41:45;5.97;;;2.17;;
5085;SDS011;4715;51.660;7.082;2023-06-26T11:44:08;2.97;;;1.93;;
5085;SDS011;4715;51.660;7.082;2023-06-26T11:46:31;1.83;;;1.73;;
5085;SDS011;4715;51.660;7.082;2023-06-26T11:48:55;3.47;;;1.80;;
5085;SDS011;4715;51.660;7.082;2023-06-26T11:51:17;3.20;;;1.50;;
5085;SDS011;4715;51.660;7.082;2023-06-26T11:53:39;2.00;;;1.90;;
5085;SDS011;4715;51.660;7.082;2023-06-26T11:56:06;1.93;;;1.83;;
5085;SDS011;4715;51.660;7.082;2023-06-26T11:58:29;2.03;;;1.83;;
5085;SDS011;4715;51.660;7.082;2023-06-26T12:00:51;1.97;;;1.83;;
5085;SDS011;4715;51.660;7.082;2023-06-26T12:03:13;3.30;;;1.57;;
5085;SDS011;4715;51.660;7.082;2023-06-26T12:05:36;1.67;;;1.57;;
5085;SDS011;4715;51.660;7.082;2023-06-26T12:07:58;1.40;;;1.30;;
5085;SDS011;4715;51.660;7.082;2023-06-26T12:10:23;1.63;;;1.53;;
5085;SDS011;4715;51.660;7.082;2023-06-26T12:12:48;1.50;;;1.40;;
5085;SDS011;4715;51.660;7.082;2023-06-26T12:15:14;2.40;;;1.27;;
5085;SDS011;4715;51.660;7.082;2023-06-26T12:17:37;1.43;;;1.33;;
5085;SDS011;4715;51.660;7.082;2023-06-26T12:20:00;1.43;;;1.33;;
5085;SDS011;4715;51.660;7.082;2023-06-26T12:22:26;1.40;;;1.30;;
5085;SDS011;4715;51.660;7.082;2023-06-26T12:24:56;1.40;;;1.27;;
5085;SDS011;4715;51.660;7.082;2023-06-26T12:27:19;2.40;;;1.47;;
5085;SDS011;4715;51.660;7.082;2023-06-26T12:29:45;1.63;;;1.53;;
5085;SDS011;4715;51.660;7.082;2023-06-26T12:32:11;1.00;;;1.00;;
5085;SDS011;4715;51.660;7.082;2023-06-26T12:34:35;2.20;;;1.20;;
5085;SDS011;4715;51.660;7.082;2023-06-26T12:37:00;2.10;;;1.40;;
5085;SDS011;4715;51.660;7.082;2023-06-26T12:39:24;1.93;;;1.30;;
5085;SDS011;4715;51.660;7.082;2023-06-26T12:41:48;3.17;;;1.40;;
5085;SDS011;4715;51.660;7.082;2023-06-26T12:44:16;5.20;;;1.53;;
5085;SDS011;4715;51.660;7.082;2023-06-26T12:46:39;4.60;;;1.80;;
5085;SDS011;4715;51.660;7.082;2023-06-26T12:49:02;2.40;;;1.30;;
5085;SDS011;4715;51.660;7.082;2023-06-26T12:51:23;3.00;;;1.60;;
5085;SDS011;4715;51.660;7.082;2023-06-26T12:53:46;1.60;;;1.47;;
5085;SDS011;4715;51.660;7.082;2023-06-26T12:56:10;1.90;;;1.60;;
5085;SDS011;4715;51.660;7.082;2023-06-26T12:58:32;3.17;;;1.70;;
5085;SDS011;4715;51.660;7.082;2023-06-26T13:00:54;5.90;;;1.57;;
5085;SDS011;4715;51.660;7.082;2023-06-26T13:03:17;4.30;;;1.77;;
5085;SDS011;4715;51.660;7.082;2023-06-26T13:05:40;1.47;;;1.37;;
5085;SDS011;4715;51.660;7.082;2023-06-26T13:08:02;1.90;;;1.60;;
5085;SDS011;4715;51.660;7.082;2023-06-26T13:10:24;3.30;;;1.40;;
5085;SDS011;4715;51.660;7.082;2023-06-26T13:12:52;3.40;;;2.20;;
5085;SDS011;4715;51.660;7.082;2023-06-26T13:15:13;2.33;;;1.80;;
5085;SDS011;4715;51.660;7.082;2023-06-26T13:17:36;4.57;;;1.60;;
5085;SDS011;4715;51.660;7.082;2023-06-26T13:19:58;2.10;;;1.37;;
5085;SDS011;4715;51.660;7.082;2023-06-26T13:22:20;2.27;;;1.53;;
5085;SDS011;4715;51.660;7.082;2023-06-26T13:24:41;1.40;;;1.30;;
5085;SDS011;4715;51.660;7.082;2023-06-26T13:27:05;2.33;;;1.23;;
5085;SDS011;4715;51.660;7.082;2023-06-26T13:29:31;2.80;;;1.43;;
5085;SDS011;4715;51.660;7.082;2023-06-26T13:31:53;1.70;;;1.40;;
5085;SDS011;4715;51.660;7.082;2023-06-26T13:34:20;2.73;;;1.37;;
5085;SDS011;4715;51.660;7.082;2023-06-26T13:36:43;1.73;;;1.63;;
5085;SDS011;4715;51.660;7.082;2023-06-26T13:39:05;6.90;;;1.60;;
5085;SDS011;4715;51.660;7.082;2023-06-26T13:41:28;1.30;;;1.20;;
5085;SDS011;4715;51.660;7.082;2023-06-26T13:43:50;2.23;;;1.27;;
5085;SDS011;4715;51.660;7.082;2023-06-26T13:46:14;1.57;;;1.40;;
5085;SDS011;4715;51.660;7.082;2023-06-26T13:48:36;2.50;;;1.50;;
5085;SDS011;4715;51.660;7.082;2023-06-26T13:50:59;2.67;;;1.40;;
5085;SDS011;4715;51.660;7.082;2023-06-26T13:53:22;1.50;;;1.40;;
5085;SDS011;4715;51.660;7.082;2023-06-26T13:55:44;1.60;;;1.50;;
5085;SDS011;4715;51.660;7.082;2023-06-26T13:58:06;1.40;;;1.40;;
5085;SDS011;4715;51.660;7.082;2023-06-26T14:00:31;2.33;;;1.30;;
5085;SDS011;4715;51.660;7.082;2023-06-26T14:02:55;1.40;;;1.30;;
5085;SDS011;4715;51.660;7.082;2023-06-26T14:05:18;2.57;;;1.40;;
5085;SDS011;4715;51.660;7.082;2023-06-26T14:07:41;2.20;;;2.00;;
5085;SDS011;4715;51.660;7.082;2023-06-26T14:10:04;3.43;;;1.40;;
5085;SDS011;4715;51.660;7.082;2023-06-26T14:12:27;1.37;;;1.27;;
5085;SDS011;4715;51.660;7.082;2023-06-26T14:14:48;2.43;;;1.77;;
5085;SDS011;4715;51.660;7.082;2023-06-26T14:17:12;4.13;;;1.77;;
5085;SDS011;4715;51.660;7.082;2023-06-26T14:19:40;2.10;;;1.53;;
5085;SDS011;4715;51.660;7.082;2023-06-26T14:22:03;1.50;;;1.40;;
5085;SDS011;4715;51.660;7.082;2023-06-26T14:24:25;2.60;;;1.40;;
5085;SDS011;4715;51.660;7.082;2023-06-26T14:26:56;2.33;;;1.40;;
5085;SDS011;4715;51.660;7.082;2023-06-26T14:29:18;3.00;;;1.40;;
5085;SDS011;4715;51.660;7.082;2023-06-26T14:31:42;3.20;;;1.37;;
5085;SDS011;4715;51.660;7.082;2023-06-26T14:34:04;1.57;;;1.47;;
5085;SDS011;4715;51.660;7.082;2023-06-26T14:36:28;1.50;;;1.40;;
5085;SDS011;4715;51.660;7.082;2023-06-26T14:38:51;1.90;;;1.57;;
5085;SDS011;4715;51.660;7.082;2023-06-26T14:41:13;2.93;;;1.50;;
5085;SDS011;4715;51.660;7.082;2023-06-26T14:43:35;1.80;;;1.60;;
5085;SDS011;4715;51.660;7.082;2023-06-26T14:45:58;1.77;;;1.37;;
5085;SDS011;4715;51.660;7.082;2023-06-26T14:48:20;2.80;;;1.50;;
5085;SDS011;4715;51.660;7.082;2023-06-26T14:50:42;1.93;;;1.37;;
5085;SDS011;4715;51.660;7.082;2023-06-26T14:53:06;1.37;;;1.27;;
5085;SDS011;4715;51.660;7.082;2023-06-26T14:55:28;2.70;;;1.40;;
5085;SDS011;4715;51.660;7.082;2023-06-26T14:57:50;2.13;;;1.53;;
5085;SDS011;4715;51.660;7.082;2023-06-26T15:00:12;2.70;;;2.03;;
5085;SDS011;4715;51.660;7.082;2023-06-26T15:02:37;4.50;;;1.73;;